Amorinopolis, Brazil
Current Conditions -  °F | °C
As of 4:00 PM on Friday 21 Nov 2014 (Local Time) from SBGO Reporting Station
Scattered Clouds Scattered Clouds  
Wind Chill: 91°   Ceiling: Unl
Heat Index: 91°   Visibility: 6mi
Dew Point: 55°   Wind: 7mph
Humidity: 29%   Direction: 50°NE
Pressure: 29.91"   Gusts: NA
Location:  16.62°S, 51.09°W
Report Text: SBGO 211800Z 05006KT 9999 SCT048 SCT090 33/13 Q1013
Loading
Personal Weather Stations






























Interactive Weather Map New forecast layout! Learn more

10-Day Weather Forecast

Advertisements
Track Severe Weather on mobile